sensor_id;sensor_type;location;lat;lon;timestamp;P1;durP1;ratioP1;P2;durP2;ratioP2
1691;SDS011;843;52.054;8.552;2023-08-06T00:01:30;6.53;;;5.93;;
1691;SDS011;843;52.054;8.552;2023-08-06T00:03:56;6.80;;;6.10;;
1691;SDS011;843;52.054;8.552;2023-08-06T00:06:25;7.00;;;6.40;;
1691;SDS011;843;52.054;8.552;2023-08-06T00:08:51;7.33;;;6.47;;
1691;SDS011;843;52.054;8.552;2023-08-06T00:11:17;6.90;;;6.30;;
1691;SDS011;843;52.054;8.552;2023-08-06T00:13:45;10.10;;;7.13;;
1691;SDS011;843;52.054;8.552;2023-08-06T00:16:12;7.43;;;6.83;;
1691;SDS011;843;52.054;8.552;2023-08-06T00:18:39;6.67;;;6.07;;
1691;SDS011;843;52.054;8.552;2023-08-06T00:21:05;7.60;;;5.97;;
1691;SDS011;843;52.054;8.552;2023-08-06T00:23:31;6.50;;;5.90;;
1691;SDS011;843;52.054;8.552;2023-08-06T00:25:58;8.17;;;7.03;;
1691;SDS011;843;52.054;8.552;2023-08-06T00:28:24;8.83;;;5.87;;
1691;SDS011;843;52.054;8.552;2023-08-06T00:30:53;6.43;;;5.67;;
1691;SDS011;843;52.054;8.552;2023-08-06T00:33:20;6.50;;;5.90;;
1691;SDS011;843;52.054;8.552;2023-08-06T00:35:46;6.87;;;6.20;;
1691;SDS011;843;52.054;8.552;2023-08-06T00:38:12;7.40;;;6.80;;
1691;SDS011;843;52.054;8.552;2023-08-06T00:40:39;8.27;;;6.60;;
1691;SDS011;843;52.054;8.552;2023-08-06T00:43:05;7.23;;;6.53;;
1691;SDS011;843;52.054;8.552;2023-08-06T00:45:33;6.47;;;5.87;;
1691;SDS011;843;52.054;8.552;2023-08-06T00:48:01;6.80;;;6.20;;
1691;SDS011;843;52.054;8.552;2023-08-06T00:50:28;11.67;;;6.77;;
1691;SDS011;843;52.054;8.552;2023-08-06T00:52:54;8.97;;;6.63;;
1691;SDS011;843;52.054;8.552;2023-08-06T00:55:21;8.63;;;7.47;;
1691;SDS011;843;52.054;8.552;2023-08-06T00:57:47;7.97;;;6.23;;
1691;SDS011;843;52.054;8.552;2023-08-06T01:00:15;6.90;;;6.20;;
1691;SDS011;843;52.054;8.552;2023-08-06T01:02:42;7.87;;;7.17;;
1691;SDS011;843;52.054;8.552;2023-08-06T01:05:09;6.90;;;6.20;;
1691;SDS011;843;52.054;8.552;2023-08-06T01:07:38;7.27;;;6.60;;
1691;SDS011;843;52.054;8.552;2023-08-06T01:10:16;7.60;;;6.90;;
1691;SDS011;843;52.054;8.552;2023-08-06T01:12:45;7.83;;;7.10;;
1691;SDS011;843;52.054;8.552;2023-08-06T01:15:15;8.23;;;7.30;;
1691;SDS011;843;52.054;8.552;2023-08-06T01:17:43;7.43;;;6.63;;
1691;SDS011;843;52.054;8.552;2023-08-06T01:20:12;7.90;;;7.20;;
1691;SDS011;843;52.054;8.552;2023-08-06T01:22:40;9.03;;;7.33;;
1691;SDS011;843;52.054;8.552;2023-08-06T01:25:07;8.60;;;7.80;;
1691;SDS011;843;52.054;8.552;2023-08-06T01:27:38;8.60;;;7.80;;
1691;SDS011;843;52.054;8.552;2023-08-06T01:30:12;8.17;;;7.37;;
1691;SDS011;843;52.054;8.552;2023-08-06T01:32:39;8.97;;;8.07;;
1691;SDS011;843;52.054;8.552;2023-08-06T01:35:08;9.70;;;8.30;;
1691;SDS011;843;52.054;8.552;2023-08-06T01:37:36;8.90;;;7.50;;
1691;SDS011;843;52.054;8.552;2023-08-06T01:40:07;8.97;;;8.10;;
1691;SDS011;843;52.054;8.552;2023-08-06T01:42:35;9.33;;;8.30;;
1691;SDS011;843;52.054;8.552;2023-08-06T01:45:02;9.33;;;8.33;;
1691;SDS011;843;52.054;8.552;2023-08-06T01:47:28;9.37;;;8.50;;
1691;SDS011;843;52.054;8.552;2023-08-06T01:49:55;9.37;;;8.47;;
1691;SDS011;843;52.054;8.552;2023-08-06T01:52:21;11.60;;;8.60;;
1691;SDS011;843;52.054;8.552;2023-08-06T01:54:47;9.80;;;8.80;;
1691;SDS011;843;52.054;8.552;2023-08-06T01:57:15;9.43;;;7.77;;
1691;SDS011;843;52.054;8.552;2023-08-06T01:59:42;9.23;;;8.33;;
1691;SDS011;843;52.054;8.552;2023-08-06T02:02:08;9.17;;;8.23;;
1691;SDS011;843;52.054;8.552;2023-08-06T02:04:35;10.57;;;9.00;;
1691;SDS011;843;52.054;8.552;2023-08-06T02:07:01;12.30;;;9.33;;
1691;SDS011;843;52.054;8.552;2023-08-06T02:09:28;9.70;;;8.40;;
1691;SDS011;843;52.054;8.552;2023-08-06T02:11:54;9.80;;;8.80;;
1691;SDS011;843;52.054;8.552;2023-08-06T02:14:22;10.00;;;9.00;;
1691;SDS011;843;52.054;8.552;2023-08-06T02:16:48;10.17;;;9.17;;
1691;SDS011;843;52.054;8.552;2023-08-06T02:19:15;10.87;;;9.10;;
1691;SDS011;843;52.054;8.552;2023-08-06T02:21:42;13.37;;;9.47;;
1691;SDS011;843;52.054;8.552;2023-08-06T02:24:08;11.20;;;9.40;;
1691;SDS011;843;52.054;8.552;2023-08-06T02:26:34;11.77;;;9.93;;
1691;SDS011;843;52.054;8.552;2023-08-06T02:29:01;10.53;;;9.43;;
1691;SDS011;843;52.054;8.552;2023-08-06T02:31:28;10.47;;;9.57;;
1691;SDS011;843;52.054;8.552;2023-08-06T02:33:55;13.37;;;9.77;;
1691;SDS011;843;52.054;8.552;2023-08-06T02:36:22;14.50;;;10.70;;
1691;SDS011;843;52.054;8.552;2023-08-06T02:38:48;13.10;;;9.13;;
1691;SDS011;843;52.054;8.552;2023-08-06T02:41:15;10.90;;;9.87;;
1691;SDS011;843;52.054;8.552;2023-08-06T02:43:41;11.70;;;10.53;;
1691;SDS011;843;52.054;8.552;2023-08-06T02:46:07;11.37;;;9.90;;
1691;SDS011;843;52.054;8.552;2023-08-06T02:48:35;11.60;;;10.40;;
1691;SDS011;843;52.054;8.552;2023-08-06T02:51:01;11.27;;;9.23;;
1691;SDS011;843;52.054;8.552;2023-08-06T02:53:28;14.70;;;9.43;;
1691;SDS011;843;52.054;8.552;2023-08-06T02:55:54;11.77;;;10.47;;
1691;SDS011;843;52.054;8.552;2023-08-06T02:58:21;10.90;;;9.80;;
1691;SDS011;843;52.054;8.552;2023-08-06T03:00:58;10.50;;;9.50;;
1691;SDS011;843;52.054;8.552;2023-08-06T03:03:25;11.10;;;9.50;;
1691;SDS011;843;52.054;8.552;2023-08-06T03:05:53;13.40;;;9.20;;
1691;SDS011;843;52.054;8.552;2023-08-06T03:08:19;24.43;;;11.70;;
1691;SDS011;843;52.054;8.552;2023-08-06T03:10:47;12.80;;;10.90;;
1691;SDS011;843;52.054;8.552;2023-08-06T03:13:14;16.33;;;10.00;;
1691;SDS011;843;52.054;8.552;2023-08-06T03:15:40;16.93;;;10.70;;
1691;SDS011;843;52.054;8.552;2023-08-06T03:18:06;11.50;;;10.10;;
1691;SDS011;843;52.054;8.552;2023-08-06T03:20:33;12.50;;;11.23;;
1691;SDS011;843;52.054;8.552;2023-08-06T03:23:01;11.70;;;10.50;;
1691;SDS011;843;52.054;8.552;2023-08-06T03:25:27;11.90;;;9.27;;
1691;SDS011;843;52.054;8.552;2023-08-06T03:27:54;11.87;;;10.60;;
1691;SDS011;843;52.054;8.552;2023-08-06T03:30:20;13.50;;;11.00;;
1691;SDS011;843;52.054;8.552;2023-08-06T03:32:46;14.93;;;10.20;;
1691;SDS011;843;52.054;8.552;2023-08-06T03:35:13;12.67;;;10.47;;
1691;SDS011;843;52.054;8.552;2023-08-06T03:37:39;10.37;;;8.90;;
1691;SDS011;843;52.054;8.552;2023-08-06T03:40:08;11.50;;;9.67;;
1691;SDS011;843;52.054;8.552;2023-08-06T03:42:34;15.00;;;10.17;;
1691;SDS011;843;52.054;8.552;2023-08-06T03:45:01;13.07;;;10.80;;
1691;SDS011;843;52.054;8.552;2023-08-06T03:47:28;13.67;;;12.27;;
1691;SDS011;843;52.054;8.552;2023-08-06T03:49:54;13.20;;;11.50;;
1691;SDS011;843;52.054;8.552;2023-08-06T03:52:20;11.17;;;10.17;;
1691;SDS011;843;52.054;8.552;2023-08-06T03:54:47;11.70;;;10.70;;
1691;SDS011;843;52.054;8.552;2023-08-06T03:57:14;13.53;;;10.13;;
1691;SDS011;843;52.054;8.552;2023-08-06T03:59:41;11.97;;;10.70;;
1691;SDS011;843;52.054;8.552;2023-08-06T04:02:07;10.57;;;9.20;;
1691;SDS011;843;52.054;8.552;2023-08-06T04:04:34;10.37;;;9.37;;
1691;SDS011;843;52.054;8.552;2023-08-06T04:07:00;11.23;;;10.13;;
1691;SDS011;843;52.054;8.552;2023-08-06T04:09:27;10.77;;;9.77;;
1691;SDS011;843;52.054;8.552;2023-08-06T04:11:54;14.10;;;11.03;;
1691;SDS011;843;52.054;8.552;2023-08-06T04:14:21;17.07;;;10.17;;
1691;SDS011;843;52.054;8.552;2023-08-06T04:16:48;10.97;;;9.90;;
1691;SDS011;843;52.054;8.552;2023-08-06T04:19:14;12.50;;;11.33;;
1691;SDS011;843;52.054;8.552;2023-08-06T04:21:41;12.80;;;10.43;;
1691;SDS011;843;52.054;8.552;2023-08-06T04:24:07;11.80;;;10.60;;
1691;SDS011;843;52.054;8.552;2023-08-06T04:26:33;13.37;;;11.93;;
1691;SDS011;843;52.054;8.552;2023-08-06T04:29:00;10.53;;;9.63;;
1691;SDS011;843;52.054;8.552;2023-08-06T04:31:28;13.30;;;11.00;;
1691;SDS011;843;52.054;8.552;2023-08-06T04:33:54;12.90;;;11.60;;
1691;SDS011;843;52.054;8.552;2023-08-06T04:36:21;11.43;;;10.17;;
1691;SDS011;843;52.054;8.552;2023-08-06T04:38:47;12.57;;;10.67;;
1691;SDS011;843;52.054;8.552;2023-08-06T04:41:13;12.90;;;11.03;;
1691;SDS011;843;52.054;8.552;2023-08-06T04:43:40;12.23;;;10.20;;
1691;SDS011;843;52.054;8.552;2023-08-06T04:46:06;11.40;;;10.20;;
1691;SDS011;843;52.054;8.552;2023-08-06T04:48:34;13.70;;;10.73;;
1691;SDS011;843;52.054;8.552;2023-08-06T04:51:00;13.37;;;10.33;;
1691;SDS011;843;52.054;8.552;2023-08-06T04:53:27;10.27;;;9.10;;
1691;SDS011;843;52.054;8.552;2023-08-06T04:55:52;10.03;;;9.03;;
1691;SDS011;843;52.054;8.552;2023-08-06T04:58:18;10.80;;;9.67;;
1691;SDS011;843;52.054;8.552;2023-08-06T05:00:45;10.20;;;9.30;;
1691;SDS011;843;52.054;8.552;2023-08-06T05:03:11;11.60;;;9.00;;
1691;SDS011;843;52.054;8.552;2023-08-06T05:05:40;10.67;;;9.20;;
1691;SDS011;843;52.054;8.552;2023-08-06T05:08:07;9.90;;;8.90;;
1691;SDS011;843;52.054;8.552;2023-08-06T05:10:33;9.80;;;8.90;;
1691;SDS011;843;52.054;8.552;2023-08-06T05:13:00;10.20;;;9.30;;
1691;SDS011;843;52.054;8.552;2023-08-06T05:15:26;13.60;;;8.30;;
1691;SDS011;843;52.054;8.552;2023-08-06T05:17:52;10.40;;;9.30;;
1691;SDS011;843;52.054;8.552;2023-08-06T05:20:19;11.30;;;9.60;;
1691;SDS011;843;52.054;8.552;2023-08-06T05:22:47;10.70;;;9.00;;
1691;SDS011;843;52.054;8.552;2023-08-06T05:25:13;12.80;;;10.13;;
1691;SDS011;843;52.054;8.552;2023-08-06T05:27:40;10.63;;;9.20;;
1691;SDS011;843;52.054;8.552;2023-08-06T05:30:07;11.83;;;9.77;;
1691;SDS011;843;52.054;8.552;2023-08-06T05:32:33;9.80;;;8.80;;
1691;SDS011;843;52.054;8.552;2023-08-06T05:35:00;10.13;;;9.03;;
1691;SDS011;843;52.054;8.552;2023-08-06T05:37:26;15.87;;;9.40;;
1691;SDS011;843;52.054;8.552;2023-08-06T05:39:54;9.77;;;8.77;;
1691;SDS011;843;52.054;8.552;2023-08-06T05:42:21;10.57;;;8.53;;
1691;SDS011;843;52.054;8.552;2023-08-06T05:44:49;10.37;;;8.73;;
1691;SDS011;843;52.054;8.552;2023-08-06T05:47:15;9.67;;;8.77;;
1691;SDS011;843;52.054;8.552;2023-08-06T05:49:42;9.70;;;8.70;;
1691;SDS011;843;52.054;8.552;2023-08-06T05:52:08;8.73;;;7.80;;
1691;SDS011;843;52.054;8.552;2023-08-06T05:54:34;8.23;;;7.57;;
1691;SDS011;843;52.054;8.552;2023-08-06T05:57:02;8.40;;;7.50;;
1691;SDS011;843;52.054;8.552;2023-08-06T05:59:29;7.80;;;7.10;;
1691;SDS011;843;52.054;8.552;2023-08-06T06:01:55;7.03;;;6.43;;
1691;SDS011;843;52.054;8.552;2023-08-06T06:04:21;10.20;;;5.80;;
1691;SDS011;843;52.054;8.552;2023-08-06T06:06:48;4.40;;;3.93;;
1691;SDS011;843;52.054;8.552;2023-08-06T06:09:14;8.70;;;4.87;;
1691;SDS011;843;52.054;8.552;2023-08-06T06:11:41;5.03;;;4.53;;
1691;SDS011;843;52.054;8.552;2023-08-06T06:14:08;8.90;;;4.00;;
1691;SDS011;843;52.054;8.552;2023-08-06T06:16:35;5.97;;;4.60;;
1691;SDS011;843;52.054;8.552;2023-08-06T06:19:01;5.33;;;4.73;;
1691;SDS011;843;52.054;8.552;2023-08-06T06:21:28;5.67;;;5.03;;
1691;SDS011;843;52.054;8.552;2023-08-06T06:23:54;5.87;;;5.37;;
1691;SDS011;843;52.054;8.552;2023-08-06T06:26:21;6.27;;;5.63;;
1691;SDS011;843;52.054;8.552;2023-08-06T06:28:48;6.70;;;5.73;;
1691;SDS011;843;52.054;8.552;2023-08-06T06:31:16;6.77;;;5.93;;
1691;SDS011;843;52.054;8.552;2023-08-06T06:33:42;6.80;;;6.10;;
1691;SDS011;843;52.054;8.552;2023-08-06T06:36:09;5.40;;;5.00;;
1691;SDS011;843;52.054;8.552;2023-08-06T06:38:35;4.43;;;4.03;;
1691;SDS011;843;52.054;8.552;2023-08-06T06:41:02;6.50;;;4.00;;
1691;SDS011;843;52.054;8.552;2023-08-06T06:43:29;4.60;;;4.20;;
1691;SDS011;843;52.054;8.552;2023-08-06T06:45:55;4.07;;;3.73;;
1691;SDS011;843;52.054;8.552;2023-08-06T06:48:24;4.50;;;4.10;;
1691;SDS011;843;52.054;8.552;2023-08-06T06:50:51;4.60;;;4.10;;
1691;SDS011;843;52.054;8.552;2023-08-06T06:53:17;4.03;;;3.73;;
1691;SDS011;843;52.054;8.552;2023-08-06T06:55:44;4.63;;;3.70;;
1691;SDS011;843;52.054;8.552;2023-08-06T06:58:10;4.23;;;3.80;;
1691;SDS011;843;52.054;8.552;2023-08-06T07:00:37;4.23;;;3.83;;
1691;SDS011;843;52.054;8.552;2023-08-06T07:03:03;3.27;;;2.97;;
1691;SDS011;843;52.054;8.552;2023-08-06T07:05:31;6.40;;;3.53;;
1691;SDS011;843;52.054;8.552;2023-08-06T07:07:58;4.40;;;3.57;;
1691;SDS011;843;52.054;8.552;2023-08-06T07:10:25;4.10;;;3.37;;
1691;SDS011;843;52.054;8.552;2023-08-06T07:12:51;4.17;;;3.73;;
1691;SDS011;843;52.054;8.552;2023-08-06T07:15:18;3.47;;;3.13;;
1691;SDS011;843;52.054;8.552;2023-08-06T07:17:44;6.57;;;3.17;;
1691;SDS011;843;52.054;8.552;2023-08-06T07:20:11;6.70;;;3.97;;
1691;SDS011;843;52.054;8.552;2023-08-06T07:22:38;4.13;;;3.80;;
1691;SDS011;843;52.054;8.552;2023-08-06T07:25:05;4.57;;;4.17;;
1691;SDS011;843;52.054;8.552;2023-08-06T07:27:32;4.23;;;3.50;;
1691;SDS011;843;52.054;8.552;2023-08-06T07:29:58;4.43;;;3.60;;
1691;SDS011;843;52.054;8.552;2023-08-06T07:32:24;4.23;;;3.93;;
1691;SDS011;843;52.054;8.552;2023-08-06T07:34:51;4.33;;;3.73;;
1691;SDS011;843;52.054;8.552;2023-08-06T07:37:21;4.00;;;3.70;;
1691;SDS011;843;52.054;8.552;2023-08-06T07:39:49;6.07;;;4.27;;
1691;SDS011;843;52.054;8.552;2023-08-06T07:42:15;4.50;;;3.70;;
1691;SDS011;843;52.054;8.552;2023-08-06T07:44:45;5.13;;;3.70;;
1691;SDS011;843;52.054;8.552;2023-08-06T07:47:15;5.10;;;4.17;;
1691;SDS011;843;52.054;8.552;2023-08-06T07:49:42;4.70;;;3.40;;
1691;SDS011;843;52.054;8.552;2023-08-06T07:52:08;4.53;;;3.73;;
1691;SDS011;843;52.054;8.552;2023-08-06T07:54:36;6.50;;;3.47;;
1691;SDS011;843;52.054;8.552;2023-08-06T07:57:04;6.10;;;3.30;;
1691;SDS011;843;52.054;8.552;2023-08-06T07:59:30;4.90;;;3.07;;
1691;SDS011;843;52.054;8.552;2023-08-06T08:01:57;3.23;;;2.83;;
1691;SDS011;843;52.054;8.552;2023-08-06T08:04:23;3.33;;;3.03;;
1691;SDS011;843;52.054;8.552;2023-08-06T08:06:50;3.53;;;3.23;;
1691;SDS011;843;52.054;8.552;2023-08-06T08:09:16;4.70;;;3.33;;
1691;SDS011;843;52.054;8.552;2023-08-06T08:11:43;4.47;;;3.00;;
1691;SDS011;843;52.054;8.552;2023-08-06T08:14:11;2.97;;;2.67;;
1691;SDS011;843;52.054;8.552;2023-08-06T08:16:37;4.23;;;3.30;;
1691;SDS011;843;52.054;8.552;2023-08-06T08:19:03;3.83;;;3.10;;
1691;SDS011;843;52.054;8.552;2023-08-06T08:21:30;4.40;;;3.80;;
1691;SDS011;843;52.054;8.552;2023-08-06T08:23:56;4.27;;;3.07;;
1691;SDS011;843;52.054;8.552;2023-08-06T08:26:23;4.80;;;3.47;;
1691;SDS011;843;52.054;8.552;2023-08-06T08:28:49;4.50;;;3.80;;
1691;SDS011;843;52.054;8.552;2023-08-06T08:31:17;4.73;;;3.60;;
1691;SDS011;843;52.054;8.552;2023-08-06T08:33:44;4.40;;;4.00;;
1691;SDS011;843;52.054;8.552;2023-08-06T08:36:10;4.23;;;3.73;;
1691;SDS011;843;52.054;8.552;2023-08-06T08:38:36;3.93;;;3.53;;
1691;SDS011;843;52.054;8.552;2023-08-06T08:41:03;6.77;;;3.60;;
1691;SDS011;843;52.054;8.552;2023-08-06T08:43:29;5.07;;;3.43;;
1691;SDS011;843;52.054;8.552;2023-08-06T08:45:56;4.07;;;3.30;;
1691;SDS011;843;52.054;8.552;2023-08-06T08:48:25;5.90;;;2.83;;
1691;SDS011;843;52.054;8.552;2023-08-06T08:50:52;3.63;;;2.80;;
1691;SDS011;843;52.054;8.552;2023-08-06T08:53:18;3.00;;;2.80;;
1691;SDS011;843;52.054;8.552;2023-08-06T08:55:46;3.77;;;3.37;;
1691;SDS011;843;52.054;8.552;2023-08-06T08:58:13;3.57;;;3.27;;
1691;SDS011;843;52.054;8.552;2023-08-06T09:00:39;5.30;;;3.20;;
1691;SDS011;843;52.054;8.552;2023-08-06T09:03:08;4.40;;;3.10;;
1691;SDS011;843;52.054;8.552;2023-08-06T09:05:36;3.20;;;2.47;;
1691;SDS011;843;52.054;8.552;2023-08-06T09:08:03;3.03;;;2.73;;
1691;SDS011;843;52.054;8.552;2023-08-06T09:10:30;3.30;;;3.00;;
1691;SDS011;843;52.054;8.552;2023-08-06T09:12:57;3.20;;;2.80;;
1691;SDS011;843;52.054;8.552;2023-08-06T09:15:24;3.60;;;3.30;;
1691;SDS011;843;52.054;8.552;2023-08-06T09:17:51;4.00;;;3.60;;
1691;SDS011;843;52.054;8.552;2023-08-06T09:20:17;3.20;;;2.90;;
1691;SDS011;843;52.054;8.552;2023-08-06T09:22:45;5.17;;;3.30;;
1691;SDS011;843;52.054;8.552;2023-08-06T09:25:13;3.93;;;2.80;;
1691;SDS011;843;52.054;8.552;2023-08-06T09:27:46;4.23;;;2.83;;
1691;SDS011;843;52.054;8.552;2023-08-06T09:30:13;2.63;;;2.40;;
1691;SDS011;843;52.054;8.552;2023-08-06T09:32:54;2.83;;;2.53;;
1691;SDS011;843;52.054;8.552;2023-08-06T09:35:21;2.60;;;2.23;;
1691;SDS011;843;52.054;8.552;2023-08-06T09:37:49;2.60;;;2.40;;
1691;SDS011;843;52.054;8.552;2023-08-06T09:40:23;2.33;;;2.13;;
1691;SDS011;843;52.054;8.552;2023-08-06T09:42:50;2.47;;;1.73;;
1691;SDS011;843;52.054;8.552;2023-08-06T09:45:16;1.83;;;1.70;;
1691;SDS011;843;52.054;8.552;2023-08-06T09:47:43;2.80;;;2.30;;
1691;SDS011;843;52.054;8.552;2023-08-06T09:50:14;1.77;;;1.60;;
1691;SDS011;843;52.054;8.552;2023-08-06T09:52:41;3.87;;;1.87;;
1691;SDS011;843;52.054;8.552;2023-08-06T09:55:09;2.57;;;1.63;;
1691;SDS011;843;52.054;8.552;2023-08-06T09:57:36;6.30;;;1.73;;
1691;SDS011;843;52.054;8.552;2023-08-06T10:00:03;3.00;;;1.97;;
1691;SDS011;843;52.054;8.552;2023-08-06T10:02:33;3.20;;;1.50;;
1691;SDS011;843;52.054;8.552;2023-08-06T10:05:00;3.00;;;1.57;;
1691;SDS011;843;52.054;8.552;2023-08-06T10:07:26;2.30;;;1.40;;
1691;SDS011;843;52.054;8.552;2023-08-06T10:09:53;2.20;;;2.00;;
1691;SDS011;843;52.054;8.552;2023-08-06T10:12:21;1.93;;;1.73;;
1691;SDS011;843;52.054;8.552;2023-08-06T10:14:47;2.80;;;2.40;;
1691;SDS011;843;52.054;8.552;2023-08-06T10:17:14;3.20;;;1.90;;
1691;SDS011;843;52.054;8.552;2023-08-06T10:19:41;2.30;;;2.10;;
1691;SDS011;843;52.054;8.552;2023-08-06T10:22:08;2.97;;;2.00;;
1691;SDS011;843;52.054;8.552;2023-08-06T10:24:45;2.97;;;2.27;;
1691;SDS011;843;52.054;8.552;2023-08-06T10:27:11;3.73;;;2.30;;
1691;SDS011;843;52.054;8.552;2023-08-06T10:29:39;3.47;;;2.33;;
1691;SDS011;843;52.054;8.552;2023-08-06T10:32:05;3.83;;;2.47;;
1691;SDS011;843;52.054;8.552;2023-08-06T10:37:15;2.70;;;2.40;;
1691;SDS011;843;52.054;8.552;2023-08-06T10:39:47;4.07;;;2.40;;
1691;SDS011;843;52.054;8.552;2023-08-06T10:42:19;14.10;;;3.50;;
1691;SDS011;843;52.054;8.552;2023-08-06T10:47:28;3.07;;;2.77;;
1691;SDS011;843;52.054;8.552;2023-08-06T10:49:54;2.90;;;2.60;;
1691;SDS011;843;52.054;8.552;2023-08-06T10:52:20;3.10;;;2.80;;
1691;SDS011;843;52.054;8.552;2023-08-06T10:54:47;2.97;;;2.60;;
1691;SDS011;843;52.054;8.552;2023-08-06T10:57:14;2.63;;;2.43;;
1691;SDS011;843;52.054;8.552;2023-08-06T10:59:40;2.63;;;2.43;;
1691;SDS011;843;52.054;8.552;2023-08-06T11:02:07;4.33;;;2.27;;
1691;SDS011;843;52.054;8.552;2023-08-06T11:04:35;2.20;;;2.00;;
1691;SDS011;843;52.054;8.552;2023-08-06T11:07:02;2.60;;;2.10;;
1691;SDS011;843;52.054;8.552;2023-08-06T11:09:28;2.87;;;1.90;;
1691;SDS011;843;52.054;8.552;2023-08-06T11:11:54;3.83;;;2.00;;
1691;SDS011;843;52.054;8.552;2023-08-06T11:14:22;2.57;;;2.30;;
1691;SDS011;843;52.054;8.552;2023-08-06T11:16:48;3.33;;;1.80;;
1691;SDS011;843;52.054;8.552;2023-08-06T11:19:15;2.53;;;2.33;;
1691;SDS011;843;52.054;8.552;2023-08-06T11:21:43;3.37;;;2.30;;
1691;SDS011;843;52.054;8.552;2023-08-06T11:24:09;3.10;;;2.03;;
1691;SDS011;843;52.054;8.552;2023-08-06T11:26:36;2.10;;;1.90;;
1691;SDS011;843;52.054;8.552;2023-08-06T11:29:05;2.67;;;2.20;;
1691;SDS011;843;52.054;8.552;2023-08-06T11:31:31;3.33;;;2.40;;
1691;SDS011;843;52.054;8.552;2023-08-06T11:33:58;3.07;;;2.47;;
1691;SDS011;843;52.054;8.552;2023-08-06T11:36:30;4.27;;;2.60;;
1691;SDS011;843;52.054;8.552;2023-08-06T11:38:58;2.60;;;2.30;;
1691;SDS011;843;52.054;8.552;2023-08-06T11:41:25;2.57;;;2.37;;
1691;SDS011;843;52.054;8.552;2023-08-06T11:43:51;3.13;;;2.20;;
1691;SDS011;843;52.054;8.552;2023-08-06T11:46:18;2.10;;;1.90;;
1691;SDS011;843;52.054;8.552;2023-08-06T11:48:51;3.23;;;2.23;;
1691;SDS011;843;52.054;8.552;2023-08-06T11:51:17;4.53;;;2.20;;
1691;SDS011;843;52.054;8.552;2023-08-06T11:53:46;3.07;;;2.57;;
1691;SDS011;843;52.054;8.552;2023-08-06T11:56:14;2.70;;;2.50;;
1691;SDS011;843;52.054;8.552;2023-08-06T11:58:40;3.30;;;2.40;;
1691;SDS011;843;52.054;8.552;2023-08-06T12:01:07;2.30;;;2.10;;
1691;SDS011;843;52.054;8.552;2023-08-06T12:03:38;2.70;;;2.20;;
1691;SDS011;843;52.054;8.552;2023-08-06T12:06:05;2.27;;;2.07;;
1691;SDS011;843;52.054;8.552;2023-08-06T12:08:32;4.80;;;2.30;;
1691;SDS011;843;52.054;8.552;2023-08-06T12:10:58;3.80;;;2.37;;
1691;SDS011;843;52.054;8.552;2023-08-06T12:13:26;3.90;;;2.37;;
1691;SDS011;843;52.054;8.552;2023-08-06T12:15:53;5.40;;;2.47;;
1691;SDS011;843;52.054;8.552;2023-08-06T12:18:22;5.80;;;2.40;;
1691;SDS011;843;52.054;8.552;2023-08-06T12:20:48;2.50;;;1.90;;
1691;SDS011;843;52.054;8.552;2023-08-06T12:23:15;2.93;;;2.60;;
1691;SDS011;843;52.054;8.552;2023-08-06T12:25:41;2.70;;;2.30;;
1691;SDS011;843;52.054;8.552;2023-08-06T12:28:09;2.33;;;1.60;;
1691;SDS011;843;52.054;8.552;2023-08-06T12:30:38;2.07;;;1.87;;
1691;SDS011;843;52.054;8.552;2023-08-06T12:33:06;3.57;;;1.93;;
1691;SDS011;843;52.054;8.552;2023-08-06T12:35:33;2.60;;;2.17;;
1691;SDS011;843;52.054;8.552;2023-08-06T12:37:59;2.77;;;2.47;;
1691;SDS011;843;52.054;8.552;2023-08-06T12:40:26;2.43;;;1.70;;
1691;SDS011;843;52.054;8.552;2023-08-06T12:42:52;2.77;;;2.30;;
1691;SDS011;843;52.054;8.552;2023-08-06T12:45:19;3.40;;;2.30;;
1691;SDS011;843;52.054;8.552;2023-08-06T12:47:47;2.13;;;1.93;;
1691;SDS011;843;52.054;8.552;2023-08-06T12:50:14;2.30;;;1.90;;
1691;SDS011;843;52.054;8.552;2023-08-06T12:52:42;4.50;;;2.00;;
1691;SDS011;843;52.054;8.552;2023-08-06T12:55:08;2.30;;;2.10;;
1691;SDS011;843;52.054;8.552;2023-08-06T12:57:35;1.93;;;1.70;;
1691;SDS011;843;52.054;8.552;2023-08-06T13:00:01;1.90;;;1.70;;
1691;SDS011;843;52.054;8.552;2023-08-06T13:02:28;2.43;;;1.63;;
1691;SDS011;843;52.054;8.552;2023-08-06T13:04:56;2.17;;;1.97;;
1691;SDS011;843;52.054;8.552;2023-08-06T13:07:23;2.60;;;1.93;;
1691;SDS011;843;52.054;8.552;2023-08-06T13:09:50;2.63;;;2.43;;
1691;SDS011;843;52.054;8.552;2023-08-06T13:12:17;2.77;;;1.90;;
1691;SDS011;843;52.054;8.552;2023-08-06T13:14:45;2.07;;;1.90;;
1691;SDS011;843;52.054;8.552;2023-08-06T13:17:11;2.00;;;1.77;;
1691;SDS011;843;52.054;8.552;2023-08-06T13:19:38;2.53;;;1.70;;
1691;SDS011;843;52.054;8.552;2023-08-06T13:22:06;2.80;;;2.23;;
1691;SDS011;843;52.054;8.552;2023-08-06T13:24:34;2.20;;;2.00;;
1691;SDS011;843;52.054;8.552;2023-08-06T13:27:00;2.37;;;2.17;;
1691;SDS011;843;52.054;8.552;2023-08-06T13:29:26;2.60;;;2.40;;
1691;SDS011;843;52.054;8.552;2023-08-06T13:31:53;2.53;;;2.33;;
1691;SDS011;843;52.054;8.552;2023-08-06T13:34:20;2.07;;;1.90;;
1691;SDS011;843;52.054;8.552;2023-08-06T13:36:46;2.43;;;2.23;;
1691;SDS011;843;52.054;8.552;2023-08-06T13:39:14;2.30;;;2.10;;
1691;SDS011;843;52.054;8.552;2023-08-06T13:41:42;2.43;;;2.23;;
1691;SDS011;843;52.054;8.552;2023-08-06T13:44:08;2.53;;;2.07;;
1691;SDS011;843;52.054;8.552;2023-08-06T13:46:35;2.23;;;1.97;;
1691;SDS011;843;52.054;8.552;2023-08-06T13:49:02;2.70;;;2.10;;
1691;SDS011;843;52.054;8.552;2023-08-06T13:51:28;2.37;;;2.00;;
1691;SDS011;843;52.054;8.552;2023-08-06T13:53:54;2.20;;;2.00;;
1691;SDS011;843;52.054;8.552;2023-08-06T13:56:24;2.77;;;2.10;;
1691;SDS011;843;52.054;8.552;2023-08-06T13:58:50;3.23;;;2.70;;
1691;SDS011;843;52.054;8.552;2023-08-06T14:01:16;3.23;;;2.33;;
1691;SDS011;843;52.054;8.552;2023-08-06T14:03:43;3.20;;;2.10;;
1691;SDS011;843;52.054;8.552;2023-08-06T14:06:09;3.83;;;2.10;;
1691;SDS011;843;52.054;8.552;2023-08-06T14:08:36;2.60;;;2.40;;
1691;SDS011;843;52.054;8.552;2023-08-06T14:11:02;2.97;;;2.77;;
1691;SDS011;843;52.054;8.552;2023-08-06T14:13:31;3.67;;;2.50;;
1691;SDS011;843;52.054;8.552;2023-08-06T14:15:57;2.90;;;2.60;;
1691;SDS011;843;52.054;8.552;2023-08-06T14:18:24;2.67;;;2.37;;
1691;SDS011;843;52.054;8.552;2023-08-06T14:20:51;4.10;;;2.90;;
1691;SDS011;843;52.054;8.552;2023-08-06T14:23:17;3.57;;;2.43;;
1691;SDS011;843;52.054;8.552;2023-08-06T14:25:44;2.77;;;2.30;;
1691;SDS011;843;52.054;8.552;2023-08-06T14:28:10;2.67;;;2.27;;
1691;SDS011;843;52.054;8.552;2023-08-06T14:30:38;2.60;;;2.23;;
1691;SDS011;843;52.054;8.552;2023-08-06T14:33:05;2.10;;;1.90;;
1691;SDS011;843;52.054;8.552;2023-08-06T14:35:31;2.93;;;2.30;;
1691;SDS011;843;52.054;8.552;2023-08-06T14:37:57;4.23;;;2.43;;
1691;SDS011;843;52.054;8.552;2023-08-06T14:40:24;2.43;;;2.23;;
1691;SDS011;843;52.054;8.552;2023-08-06T14:42:53;2.60;;;2.40;;
1691;SDS011;843;52.054;8.552;2023-08-06T14:45:19;3.03;;;2.83;;
1691;SDS011;843;52.054;8.552;2023-08-06T14:47:47;2.33;;;2.10;;
1691;SDS011;843;52.054;8.552;2023-08-06T14:50:14;2.90;;;2.40;;
1691;SDS011;843;52.054;8.552;2023-08-06T14:52:40;3.23;;;2.50;;
1691;SDS011;843;52.054;8.552;2023-08-06T14:55:07;3.30;;;3.00;;
1691;SDS011;843;52.054;8.552;2023-08-06T14:57:33;3.07;;;2.70;;
1691;SDS011;843;52.054;8.552;2023-08-06T15:00:00;2.43;;;2.23;;
1691;SDS011;843;52.054;8.552;2023-08-06T15:02:26;4.23;;;1.97;;
1691;SDS011;843;52.054;8.552;2023-08-06T15:04:54;3.37;;;2.30;;
1691;SDS011;843;52.054;8.552;2023-08-06T15:07:21;2.50;;;2.20;;
1691;SDS011;843;52.054;8.552;2023-08-06T15:09:47;3.00;;;2.80;;
1691;SDS011;843;52.054;8.552;2023-08-06T15:12:13;2.73;;;2.40;;
1691;SDS011;843;52.054;8.552;2023-08-06T15:14:40;2.03;;;1.80;;
1691;SDS011;843;52.054;8.552;2023-08-06T15:17:06;2.40;;;2.20;;
1691;SDS011;843;52.054;8.552;2023-08-06T15:19:32;2.10;;;1.90;;
1691;SDS011;843;52.054;8.552;2023-08-06T15:22:01;3.30;;;2.47;;
1691;SDS011;843;52.054;8.552;2023-08-06T15:24:27;1.90;;;1.80;;
1691;SDS011;843;52.054;8.552;2023-08-06T15:26:54;2.43;;;1.90;;
1691;SDS011;843;52.054;8.552;2023-08-06T15:29:20;1.77;;;1.67;;